Time;durP1;ratioP1;P1;durP2;ratioP2;P2;SDS_P1;SDS_P2;PMS_P1;PMS_P2;Temp;Humidity;BMP_temperature;BMP_pressure;BME280_temperature;BME280_humidity;BME280_pressure;Samples;Min_cycle;Max_cycle;Signal;HPM_P1;HPM_P2
2022/05/03 00:00:09;;;;;;;;;;;;;;;;;;1034500;28;3739;-48
2022/05/03 00:01:04;;;;;;;;;;;;;;;;;;1030376;28;3500;-45
2022/05/03 00:01:45;;;;;;;;;;;;;;;;;;1029797;28;3568;-48
2022/05/03 00:02:24;;;;;;;;;;;;;;;;;;1030206;28;3688;-45
2022/05/03 00:03:03;;;;;;;;;;;;;;;;;;1031206;28;3860;-44
2022/05/03 00:03:39;;;;;;;;;;;;;;;;;;1036667;28;3681;-46
2022/05/03 00:04:21;;;;;;;;;;;;;;;;;;1034720;28;3754;-47
2022/05/03 00:04:54;;;;;;;;;;;;;;;;;;1036145;28;3990;-45
2022/05/03 00:05:34;;;;;;;;;;;;;;;;;;1031435;28;3535;-45
2022/05/03 00:06:16;;;;;;;;;;;;;;;;;;1030745;28;3824;-44
2022/05/03 00:06:59;;;;;;;;;;;;;;;;;;1032276;28;3740;-49
2022/05/03 00:07:43;;;;;;;;;;;;;;;;;;1035544;28;3589;-47
2022/05/03 00:08:19;;;;;;;;;;;;;;;;;;1031484;28;4673;-46
2022/05/03 00:08:49;;;;;;;;;;;;;;;;;;1030660;28;3526;-43
2022/05/03 00:09:24;;;;;;;;;;;;;;;;;;1031119;28;3678;-45
2022/05/03 00:10:15;;;;;;;;;;;;;;;;;;1033403;28;3553;-44
2022/05/03 00:10:51;;;;;;;;;;;;;;;;;;1035817;28;3571;-47
2022/05/03 00:11:21;;;;;;;;;;;;;;;;;;1036249;28;4124;-47
2022/05/03 00:11:57;;;;;;;;;;;;;;;;;;1035795;28;3849;-45
2022/05/03 00:12:33;;;;;;;;;;;;;;;;;;1032863;28;4607;-44
2022/05/03 00:13:06;;;;;;;;;;;;;;;;;;1031182;28;3573;-46
2022/05/03 00:13:43;;;;;;;;;;;;;;;;;;1032213;28;3807;-45
2022/05/03 00:14:28;;;;;;;;;;;;;;;;;;1033957;28;3560;-44
2022/05/03 00:15:00;;;;;;;;;;;;;;;;;;1036350;28;3673;-45
2022/05/03 00:15:31;;;;;;;;;;;;;;;;;;1035378;28;3810;-45
2022/05/03 00:16:02;;;;;;;;;;;;;;;;;;1035684;28;3823;-46
2022/05/03 00:16:33;;;;;;;;;;;;;;;;;;1034998;28;3617;-44
2022/05/03 00:17:04;;;;;;;;;;;;;;;;;;1036040;28;3718;-46
2022/05/03 00:17:34;;;;;;;;;;;;;;;;;;1036560;28;3594;-45
2022/05/03 00:18:05;;;;;;;;;;;;;;;;;;1034782;28;3492;-44
2022/05/03 00:18:36;;;;;;;;;;;;;;;;;;1036065;28;3904;-46
2022/05/03 00:19:06;;;;;;;;;;;;;;;;;;1034777;28;3734;-45
2022/05/03 00:19:37;;;;;;;;;;;;;;;;;;1035974;28;3531;-45
2022/05/03 00:20:07;;;;;;;;;;;;;;;;;;1036482;28;3433;-46
2022/05/03 00:20:38;;;;;;;;;;;;;;;;;;1036322;28;3614;-44
2022/05/03 00:21:10;;;;;;;;;;;;;;;;;;1034540;28;3408;-44
2022/05/03 00:21:40;;;;;;;;;;;;;;;;;;1036741;28;3857;-44
2022/05/03 00:22:14;;;;;;;;;;;;;;;;;;1032144;28;4363;-47
2022/05/03 00:22:44;;;;;;;;;;;;;;;;;;1030663;28;4659;-46
2022/05/03 00:23:15;;;;;;;;;;;;;;;;;;1031658;28;3818;-46
2022/05/03 00:23:45;;;;;;;;;;;;;;;;;;1031571;28;3731;-46
2022/05/03 00:24:17;;;;;;;;;;;;;;;;;;1035533;28;3828;-45
2022/05/03 00:24:48;;;;;;;;;;;;;;;;;;1034039;28;4589;-45
2022/05/03 00:25:18;;;;;;;;;;;;;;;;;;1035179;28;4054;-46
2022/05/03 00:25:51;;;;;;;;;;;;;;;;;;1035099;28;3572;-45
2022/05/03 00:26:21;;;;;;;;;;;;;;;;;;1035248;28;3486;-46
2022/05/03 00:26:51;;;;;;;;;;;;;;;;;;1034330;28;3982;-46
2022/05/03 00:27:25;;;;;;;;;;;;;;;;;;1035171;28;4925;-46
2022/05/03 00:28:10;;;;;;;;;;;;;;;;;;1037019;28;3814;-47
2022/05/03 00:28:47;;;;;;;;;;;;;;;;;;1033068;28;3866;-45
2022/05/03 00:29:18;;;;;;;;;;;;;;;;;;1033553;28;3729;-44
2022/05/03 00:29:49;;;;;;;;;;;;;;;;;;1034294;28;5314;-46
2022/05/03 00:30:19;;;;;;;;;;;;;;;;;;1034678;28;4043;-44
2022/05/03 00:30:56;;;;;;;;;;;;;;;;;;1031263;28;3710;-47
2022/05/03 00:31:28;;;;;;;;;;;;;;;;;;1031338;28;3747;-47
2022/05/03 00:32:01;;;;;;;;;;;;;;;;;;1031670;28;3439;-44
2022/05/03 00:32:31;;;;;;;;;;;;;;;;;;1030563;28;3603;-45
2022/05/03 00:33:04;;;;;;;;;;;;;;;;;;1030621;28;3835;-44
2022/05/03 00:33:34;;;;;;;;;;;;;;;;;;1032275;28;3859;-45
2022/05/03 00:34:05;;;;;;;;;;;;;;;;;;1032027;28;3510;-44
2022/05/03 00:34:36;;;;;;;;;;;;;;;;;;1031192;28;3575;-45
2022/05/03 00:35:09;;;;;;;;;;;;;;;;;;1032102;28;3605;-45
2022/05/03 00:35:40;;;;;;;;;;;;;;;;;;1035485;28;3817;-46
2022/05/03 00:36:10;;;;;;;;;;;;;;;;;;1033600;28;3446;-46
2022/05/03 00:36:40;;;;;;;;;;;;;;;;;;1035658;28;3753;-46
2022/05/03 00:37:10;;;;;;;;;;;;;;;;;;1035092;28;3777;-45
2022/05/03 00:37:41;;;;;;;;;;;;;;;;;;1036096;28;3568;-44
2022/05/03 00:38:11;;;;;;;;;;;;;;;;;;1032523;28;4141;-46
2022/05/03 00:38:41;;;;;;;;;;;;;;;;;;1032266;28;3530;-44
2022/05/03 00:39:12;;;;;;;;;;;;;;;;;;1032206;28;3586;-45
2022/05/03 00:39:42;;;;;;;;;;;;;;;;;;1029751;28;3506;-44
2022/05/03 00:40:14;;;;;;;;;;;;;;;;;;1035399;28;3641;-44
2022/05/03 00:40:48;;;;;;;;;;;;;;;;;;1034147;28;3411;-44
2022/05/03 00:41:23;;;;;;;;;;;;;;;;;;1036408;28;3419;-45
2022/05/03 00:42:14;;;;;;;;;;;;;;;;;;1036029;28;3635;-46
2022/05/03 00:43:03;;;;;;;;;;;;;;;;;;1035590;28;3645;-46
2022/05/03 00:43:53;;;;;;;;;;;;;;;;;;1035262;28;3507;-44
2022/05/03 00:45:38;;;;;;;;;;;;;;;;;;1031234;28;3575;-46
2022/05/03 00:46:20;;;;;;;;;;;;;;;;;;1028088;28;3582;-44
2022/05/03 00:46:53;;;;;;;;;;;;;;;;;;1027981;28;3622;-46
2022/05/03 00:47:32;;;;;;;;;;;;;;;;;;1026980;28;3435;-45
2022/05/03 00:48:11;;;;;;;;;;;;;;;;;;1033785;28;3876;-46
2022/05/03 00:49:00;;;;;;;;;;;;;;;;;;1034910;28;3605;-45
2022/05/03 00:49:51;;;;;;;;;;;;;;;;;;1035834;28;3994;-46
2022/05/03 00:50:36;;;;;;;;;;;;;;;;;;1019528;28;3499;-45
2022/05/03 00:51:14;;;;;;;;;;;;;;;;;;1034894;28;3659;-45
2022/05/03 00:51:53;;;;;;;;;;;;;;;;;;1032160;28;3560;-44
2022/05/03 00:52:27;;;;;;;;;;;;;;;;;;1032441;28;4300;-46
2022/05/03 00:53:16;;;;;;;;;;;;;;;;;;1031167;28;3432;-45
2022/05/03 00:54:05;;;;;;;;;;;;;;;;;;1036160;28;3601;-46
2022/05/03 00:54:45;;;;;;;;;;;;;;;;;;1034429;28;3952;-46
2022/05/03 00:55:33;;;;;;;;;;;;;;;;;;1035554;28;4819;-46
2022/05/03 00:56:13;;;;;;;;;;;;;;;;;;1033516;28;4890;-46
2022/05/03 00:56:46;;;;;;;;;;;;;;;;;;1032244;28;3877;-45
2022/05/03 00:57:25;;;;;;;;;;;;;;;;;;1024303;28;3544;-44
2022/05/03 00:58:07;;;;;;;;;;;;;;;;;;1022748;28;4012;-46
2022/05/03 00:58:56;;;;;;;;;;;;;;;;;;1027630;28;3668;-45
2022/05/03 00:59:45;;;;;;;;;;;;;;;;;;1034323;28;3589;-46
2022/05/03 01:00:15;;;;;;;;;;;;;;;;;;1034765;28;3624;-49
2022/05/03 01:00:54;;;;;;;;;;;;;;;;;;1036773;28;3483;-44
2022/05/03 01:01:33;;;;;;;;;;;;;;;;;;1036982;28;3574;-48
2022/05/03 01:02:05;;;;;;;;;;;;;;;;;;1035933;28;3747;-44
2022/05/03 01:02:50;;;;;;;;;;;;;;;;;;1036952;28;3700;-47
2022/05/03 01:03:35;;;;;;;;;;;;;;;;;;1036735;28;3749;-45
2022/05/03 01:04:10;;;;;;;;;;;;;;;;;;1037094;28;3827;-44
2022/05/03 01:04:56;;;;;;;;;;;;;;;;;;1037376;28;3583;-44
2022/05/03 01:05:28;;;;;;;;;;;;;;;;;;1035802;28;5460;-45
2022/05/03 01:06:08;;;;;;;;;;;;;;;;;;1031427;28;4601;-44
2022/05/03 01:06:57;;;;;;;;;;;;;;;;;;1031603;28;3722;-44
2022/05/03 01:07:33;;;;;;;;;;;;;;;;;;1030535;28;3564;-46
2022/05/03 01:08:05;;;;;;;;;;;;;;;;;;1036733;28;3756;-46
2022/05/03 01:08:36;;;;;;;;;;;;;;;;;;1036052;28;3544;-45
2022/05/03 01:09:09;;;;;;;;;;;;;;;;;;1036258;28;4940;-47
2022/05/03 01:09:43;;;;;;;;;;;;;;;;;;1035551;28;3662;-44
2022/05/03 01:10:13;;;;;;;;;;;;;;;;;;1035321;28;3667;-44
2022/05/03 01:10:57;;;;;;;;;;;;;;;;;;1036149;28;3616;-44
2022/05/03 01:11:33;;;;;;;;;;;;;;;;;;1036980;28;3711;-46
2022/05/03 01:12:12;;;;;;;;;;;;;;;;;;1036413;28;3564;-46
2022/05/03 01:12:49;;;;;;;;;;;;;;;;;;1036460;28;4287;-44
2022/05/03 01:13:34;;;;;;;;;;;;;;;;;;1032329;28;3566;-46
2022/05/03 01:14:10;;;;;;;;;;;;;;;;;;1031946;28;3494;-46
2022/05/03 01:14:52;;;;;;;;;;;;;;;;;;1030404;28;3496;-46
2022/05/03 01:15:24;;;;;;;;;;;;;;;;;;1031845;28;3646;-48
2022/05/03 01:16:01;;;;;;;;;;;;;;;;;;1033233;28;3680;-47
2022/05/03 01:16:33;;;;;;;;;;;;;;;;;;1029832;28;4221;-45
2022/05/03 01:17:07;;;;;;;;;;;;;;;;;;1029440;28;3432;-45
2022/05/03 01:17:44;;;;;;;;;;;;;;;;;;1032150;28;3512;-45
2022/05/03 01:18:29;;;;;;;;;;;;;;;;;;1034088;28;3683;-46
2022/05/03 01:19:10;;;;;;;;;;;;;;;;;;1036020;28;3836;-48
2022/05/03 01:19:48;;;;;;;;;;;;;;;;;;1030956;28;3737;-46
2022/05/03 01:20:26;;;;;;;;;;;;;;;;;;1032074;28;3875;-45
2022/05/03 01:21:15;;;;;;;;;;;;;;;;;;1031170;28;3505;-46
2022/05/03 01:21:54;;;;;;;;;;;;;;;;;;1035741;28;3702;-46
2022/05/03 01:22:34;;;;;;;;;;;;;;;;;;1035204;28;3418;-47
2022/05/03 01:23:22;;;;;;;;;;;;;;;;;;1035596;28;4192;-47
2022/05/03 01:23:56;;;;;;;;;;;;;;;;;;1036691;28;3604;-45
2022/05/03 01:24:35;;;;;;;;;;;;;;;;;;1035725;28;4878;-45
2022/05/03 01:25:24;;;;;;;;;;;;;;;;;;1036809;28;3477;-46
2022/05/03 01:25:54;;;;;;;;;;;;;;;;;;1036396;28;3597;-47
2022/05/03 01:26:43;;;;;;;;;;;;;;;;;;1031971;28;3620;-48
2022/05/03 01:27:28;;;;;;;;;;;;;;;;;;1034017;28;3904;-45
2022/05/03 01:28:19;;;;;;;;;;;;;;;;;;1031297;28;3929;-44
2022/05/03 01:29:11;;;;;;;;;;;;;;;;;;1032862;28;3733;-46
2022/05/03 01:29:49;;;;;;;;;;;;;;;;;;1029578;28;3584;-46
2022/05/03 01:30:28;;;;;;;;;;;;;;;;;;1031208;28;3878;-45
2022/05/03 01:31:02;;;;;;;;;;;;;;;;;;1036189;28;3550;-44
2022/05/03 01:31:34;;;;;;;;;;;;;;;;;;1036079;28;3901;-47
2022/05/03 01:32:05;;;;;;;;;;;;;;;;;;1035761;28;3714;-45
2022/05/03 01:32:36;;;;;;;;;;;;;;;;;;1035441;28;3528;-44
2022/05/03 01:33:08;;;;;;;;;;;;;;;;;;1035876;28;3610;-45
2022/05/03 01:33:40;;;;;;;;;;;;;;;;;;1033915;28;3776;-45
2022/05/03 01:34:13;;;;;;;;;;;;;;;;;;1035028;28;4082;-45
2022/05/03 01:34:45;;;;;;;;;;;;;;;;;;1035512;28;4783;-45
2022/05/03 01:35:15;;;;;;;;;;;;;;;;;;1035854;28;3670;-46
2022/05/03 01:35:49;;;;;;;;;;;;;;;;;;1036141;28;4098;-46
2022/05/03 01:36:23;;;;;;;;;;;;;;;;;;1037194;28;4316;-45
2022/05/03 01:36:54;;;;;;;;;;;;;;;;;;1035584;28;3494;-46
2022/05/03 01:37:43;;;;;;;;;;;;;;;;;;1032649;28;3534;-45
2022/05/03 01:38:29;;;;;;;;;;;;;;;;;;1027550;28;3586;-45
2022/05/03 01:39:06;;;;;;;;;;;;;;;;;;1028488;28;3835;-45
2022/05/03 01:39:46;;;;;;;;;;;;;;;;;;1030336;28;3497;-44
2022/05/03 01:40:27;;;;;;;;;;;;;;;;;;1034317;28;3552;-46
2022/05/03 01:41:16;;;;;;;;;;;;;;;;;;1036273;28;3906;-44
2022/05/03 01:41:48;;;;;;;;;;;;;;;;;;1035176;28;4194;-45
2022/05/03 01:42:28;;;;;;;;;;;;;;;;;;1036965;28;3571;-45
2022/05/03 01:43:06;;;;;;;;;;;;;;;;;;1036883;28;3726;-46
2022/05/03 01:43:36;;;;;;;;;;;;;;;;;;1035858;28;3534;-46
2022/05/03 01:44:39;;;;;;;;;;;;;;;;;;1034523;28;3455;-45
2022/05/03 01:45:09;;;;;;;;;;;;;;;;;;1019558;28;3604;-47
2022/05/03 01:45:40;;;;;;;;;;;;;;;;;;1019651;28;3569;-46
2022/05/03 01:46:14;;;;;;;;;;;;;;;;;;1027548;28;3786;-45
2022/05/03 01:46:49;;;;;;;;;;;;;;;;;;1035975;28;3586;-46
2022/05/03 01:47:25;;;;;;;;;;;;;;;;;;1036106;28;3714;-48
2022/05/03 01:48:04;;;;;;;;;;;;;;;;;;1035772;28;3688;-46
2022/05/03 01:50:18;;;;;;;;;;;;;;;;;;1036186;28;3593;-46
2022/05/03 01:50:51;;;;;;;;;;;;;;;;;;1034504;28;3797;-45
2022/05/03 01:51:30;;;;;;;;;;;;;;;;;;1036261;28;3625;-45
2022/05/03 01:52:22;;;;;;;;;;;;;;;;;;1036062;28;3608;-46
2022/05/03 01:53:11;;;;;;;;;;;;;;;;;;1036476;28;3848;-45
2022/05/03 01:53:51;;;;;;;;;;;;;;;;;;1036106;28;3649;-44
2022/05/03 01:54:38;;;;;;;;;;;;;;;;;;1035545;28;3473;-47
2022/05/03 01:55:32;;;;;;;;;;;;;;;;;;1036407;28;3840;-46
2022/05/03 01:56:05;;;;;;;;;;;;;;;;;;1034171;28;6544;-45
2022/05/03 01:56:41;;;;;;;;;;;;;;;;;;1036152;28;3589;-44
2022/05/03 01:57:11;;;;;;;;;;;;;;;;;;1036087;28;4161;-46
2022/05/03 01:57:50;;;;;;;;;;;;;;;;;;1035683;28;3802;-47
2022/05/03 01:58:26;;;;;;;;;;;;;;;;;;1035930;28;3597;-46
2022/05/03 01:59:25;;;;;;;;;;;;;;;;;;1036401;28;3560;-46
2022/05/03 02:00:06;;;;;;;;;;;;;;;;;;1036536;28;3529;-46
2022/05/03 02:00:37;;;;;;;;;;;;;;;;;;1034937;28;5790;-46
2022/05/03 02:01:22;;;;;;;;;;;;;;;;;;1035696;28;3660;-45
2022/05/03 02:01:56;;;;;;;;;;;;;;;;;;1036239;28;5774;-45
2022/05/03 02:02:32;;;;;;;;;;;;;;;;;;1037079;28;3750;-45
2022/05/03 02:03:06;;;;;;;;;;;;;;;;;;1032104;28;3578;-44
2022/05/03 02:03:48;;;;;;;;;;;;;;;;;;1028041;28;3739;-45
2022/05/03 02:04:31;;;;;;;;;;;;;;;;;;1030842;28;4666;-46
2022/05/03 02:05:05;;;;;;;;;;;;;;;;;;1035767;28;4571;-44
2022/05/03 02:05:56;;;;;;;;;;;;;;;;;;1036813;28;4212;-44
2022/05/03 02:06:43;;;;;;;;;;;;;;;;;;1035286;28;3828;-44
2022/05/03 02:07:22;;;;;;;;;;;;;;;;;;1036381;28;3553;-45
2022/05/03 02:07:57;;;;;;;;;;;;;;;;;;1036533;28;3571;-46
2022/05/03 02:08:33;;;;;;;;;;;;;;;;;;1036790;28;3618;-47
2022/05/03 02:09:05;;;;;;;;;;;;;;;;;;1036992;28;3815;-44
2022/05/03 02:09:44;;;;;;;;;;;;;;;;;;1036221;28;3574;-44
2022/05/03 02:10:18;;;;;;;;;;;;;;;;;;1036177;28;3655;-44
2022/05/03 02:10:48;;;;;;;;;;;;;;;;;;1036265;28;3530;-44
2022/05/03 02:11:37;;;;;;;;;;;;;;;;;;1030251;28;3875;-46
2022/05/03 02:12:10;;;;;;;;;;;;;;;;;;1032503;28;3425;-47
2022/05/03 02:12:43;;;;;;;;;;;;;;;;;;1032355;28;3639;-46
2022/05/03 02:13:23;;;;;;;;;;;;;;;;;;1035510;28;3707;-44
2022/05/03 02:14:56;;;;;;;;;;;;;;;;;;1036125;28;3790;-46
2022/05/03 02:15:38;;;;;;;;;;;;;;;;;;1035863;28;3649;-45
2022/05/03 02:16:09;;;;;;;;;;;;;;;;;;1036148;28;3602;-45
2022/05/03 02:16:42;;;;;;;;;;;;;;;;;;1035561;28;3589;-45
2022/05/03 02:17:19;;;;;;;;;;;;;;;;;;1035634;28;4911;-45
2022/05/03 02:17:53;;;;;;;;;;;;;;;;;;1035995;28;3828;-44
2022/05/03 02:18:32;;;;;;;;;;;;;;;;;;1036835;28;3824;-43
2022/05/03 02:19:07;;;;;;;;;;;;;;;;;;1034913;28;3638;-46
2022/05/03 02:19:53;;;;;;;;;;;;;;;;;;1034477;28;3534;-45
2022/05/03 02:20:33;;;;;;;;;;;;;;;;;;1035452;28;6034;-43
2022/05/03 02:21:17;;;;;;;;;;;;;;;;;;1036157;28;4303;-45
2022/05/03 02:21:50;;;;;;;;;;;;;;;;;;1036607;28;3540;-44
2022/05/03 02:22:39;;;;;;;;;;;;;;;;;;1031753;28;3698;-43
2022/05/03 02:23:13;;;;;;;;;;;;;;;;;;1027756;28;3460;-46
2022/05/03 02:23:50;;;;;;;;;;;;;;;;;;1028251;28;3625;-44
2022/05/03 02:24:25;;;;;;;;;;;;;;;;;;1024828;28;3556;-44
2022/05/03 02:25:02;;;;;;;;;;;;;;;;;;1028338;28;3623;-45
2022/05/03 02:25:51;;;;;;;;;;;;;;;;;;1031180;28;3578;-44
2022/05/03 02:26:31;;;;;;;;;;;;;;;;;;1035383;28;3904;-44
2022/05/03 02:27:07;;;;;;;;;;;;;;;;;;1031608;28;3890;-46
2022/05/03 02:27:39;;;;;;;;;;;;;;;;;;1031650;28;5430;-45
2022/05/03 02:28:30;;;;;;;;;;;;;;;;;;1030890;28;4079;-44
2022/05/03 02:29:10;;;;;;;;;;;;;;;;;;1036368;28;3545;-46
2022/05/03 02:29:45;;;;;;;;;;;;;;;;;;1034818;28;4154;-47
2022/05/03 02:30:17;;;;;;;;;;;;;;;;;;1031089;28;3576;-44
2022/05/03 02:30:49;;;;;;;;;;;;;;;;;;1033455;28;4285;-45
2022/05/03 02:31:23;;;;;;;;;;;;;;;;;;1036558;28;3600;-43
2022/05/03 02:32:01;;;;;;;;;;;;;;;;;;1036843;28;4224;-45
2022/05/03 02:32:41;;;;;;;;;;;;;;;;;;1039557;28;3516;-45
2022/05/03 02:33:31;;;;;;;;;;;;;;;;;;1039617;28;3476;-45
2022/05/03 02:34:20;;;;;;;;;;;;;;;;;;1039707;28;3848;-45
2022/05/03 02:34:58;;;;;;;;;;;;;;;;;;1041188;28;3605;-47
2022/05/03 02:35:33;;;;;;;;;;;;;;;;;;1039412;28;3561;-47
2022/05/03 02:36:06;;;;;;;;;;;;;;;;;;1039255;28;3463;-46
2022/05/03 02:36:42;;;;;;;;;;;;;;;;;;1040266;28;3631;-45
2022/05/03 02:37:23;;;;;;;;;;;;;;;;;;1040739;28;3579;-45
2022/05/03 02:37:55;;;;;;;;;;;;;;;;;;1034169;28;3789;-47
2022/05/03 02:38:43;;;;;;;;;;;;;;;;;;1033745;28;3576;-46
2022/05/03 02:39:13;;;;;;;;;;;;;;;;;;1034677;28;3901;-44
2022/05/03 02:39:47;;;;;;;;;;;;;;;;;;1037593;28;3931;-48
2022/05/03 02:40:24;;;;;;;;;;;;;;;;;;1040021;28;3439;-44
2022/05/03 02:40:55;;;;;;;;;;;;;;;;;;1039189;28;3418;-47
2022/05/03 02:41:26;;;;;;;;;;;;;;;;;;1039893;28;3554;-45
2022/05/03 02:41:57;;;;;;;;;;;;;;;;;;1039652;28;3787;-47
2022/05/03 02:42:28;;;;;;;;;;;;;;;;;;1038791;28;3688;-45
2022/05/03 02:42:58;;;;;;;;;;;;;;;;;;1039405;28;4608;-46
2022/05/03 02:43:30;;;;;;;;;;;;;;;;;;1039397;28;3528;-45
2022/05/03 02:44:04;;;;;;;;;;;;;;;;;;1040416;28;3603;-47
2022/05/03 02:44:34;;;;;;;;;;;;;;;;;;1039580;28;3587;-44
2022/05/03 02:45:05;;;;;;;;;;;;;;;;;;1039086;28;3859;-45
2022/05/03 02:45:40;;;;;;;;;;;;;;;;;;1038814;28;3857;-44
2022/05/03 02:46:29;;;;;;;;;;;;;;;;;;1039772;28;3999;-44
2022/05/03 02:47:03;;;;;;;;;;;;;;;;;;1037155;28;3856;-46
2022/05/03 02:47:42;;;;;;;;;;;;;;;;;;1036725;28;3626;-45
2022/05/03 02:48:14;;;;;;;;;;;;;;;;;;1037081;28;3749;-45
2022/05/03 02:48:49;;;;;;;;;;;;;;;;;;1037436;28;3447;-46
2022/05/03 02:49:27;;;;;;;;;;;;;;;;;;1037227;28;3655;-44
2022/05/03 02:49:57;;;;;;;;;;;;;;;;;;1037067;28;3836;-48
2022/05/03 02:50:35;;;;;;;;;;;;;;;;;;1037846;28;3672;-44
2022/05/03 02:51:07;;;;;;;;;;;;;;;;;;1038269;28;3700;-45
2022/05/03 02:51:40;;;;;;;;;;;;;;;;;;1039231;28;3641;-44
2022/05/03 02:52:11;;;;;;;;;;;;;;;;;;1040103;28;3624;-46
2022/05/03 02:52:58;;;;;;;;;;;;;;;;;;1039622;28;3581;-47
2022/05/03 02:53:46;;;;;;;;;;;;;;;;;;1036417;28;3749;-45
2022/05/03 02:54:32;;;;;;;;;;;;;;;;;;1037063;28;3449;-46
2022/05/03 02:55:13;;;;;;;;;;;;;;;;;;1037632;28;3537;-47
2022/05/03 02:56:01;;;;;;;;;;;;;;;;;;1038529;28;4042;-46
2022/05/03 02:56:42;;;;;;;;;;;;;;;;;;1039523;28;3516;-47
2022/05/03 02:57:19;;;;;;;;;;;;;;;;;;1040167;28;3728;-47
2022/05/03 02:57:54;;;;;;;;;;;;;;;;;;1040319;28;4043;-45
2022/05/03 02:58:40;;;;;;;;;;;;;;;;;;1039720;28;3687;-43
2022/05/03 02:59:18;;;;;;;;;;;;;;;;;;1038916;28;3868;-47
2022/05/03 03:02:17;;;;;;;;;;;;;;;;;;1028582;28;3689;-45
2022/05/03 03:02:58;;;;;;;;;;;;;;;;;;1033289;28;4196;-45
2022/05/03 03:03:47;;;;;;;;;;;;;;;;;;1032815;28;3625;-48
2022/05/03 03:04:29;;;;;;;;;;;;;;;;;;1031849;28;3511;-47
2022/05/03 03:05:07;;;;;;;;;;;;;;;;;;1038813;28;3570;-45
2022/05/03 03:05:41;;;;;;;;;;;;;;;;;;1040959;28;3872;-46
2022/05/03 03:06:16;;;;;;;;;;;;;;;;;;1040689;28;3539;-45
2022/05/03 03:06:47;;;;;;;;;;;;;;;;;;1039710;28;3662;-47
2022/05/03 03:07:18;;;;;;;;;;;;;;;;;;1039432;28;3562;-47
2022/05/03 03:07:53;;;;;;;;;;;;;;;;;;1040093;28;3670;-45
2022/05/03 03:08:26;;;;;;;;;;;;;;;;;;1035769;28;3881;-46
2022/05/03 03:08:57;;;;;;;;;;;;;;;;;;1036656;28;3661;-45
2022/05/03 03:09:46;;;;;;;;;;;;;;;;;;1035640;28;3578;-45
2022/05/03 03:10:20;;;;;;;;;;;;;;;;;;1039074;28;3628;-47
2022/05/03 03:10:52;;;;;;;;;;;;;;;;;;1039363;28;3781;-46
2022/05/03 03:11:52;;;;;;;;;;;;;;;;;;1040039;28;3608;-44
2022/05/03 03:12:41;;;;;;;;;;;;;;;;;;1039512;28;3702;-45
2022/05/03 03:13:16;;;;;;;;;;;;;;;;;;1039147;28;4267;-45
2022/05/03 03:13:47;;;;;;;;;;;;;;;;;;1040202;28;3869;-46
2022/05/03 03:14:31;;;;;;;;;;;;;;;;;;1039309;28;3767;-45
2022/05/03 03:15:09;;;;;;;;;;;;;;;;;;1038757;28;3903;-44
2022/05/03 03:15:40;;;;;;;;;;;;;;;;;;1039420;28;3863;-45
2022/05/03 03:16:12;;;;;;;;;;;;;;;;;;1039439;28;3528;-46
2022/05/03 03:16:45;;;;;;;;;;;;;;;;;;1040973;28;3698;-45
2022/05/03 03:17:20;;;;;;;;;;;;;;;;;;1038968;28;4431;-44
2022/05/03 03:17:51;;;;;;;;;;;;;;;;;;1038978;28;3573;-44
2022/05/03 03:18:23;;;;;;;;;;;;;;;;;;1041056;28;3768;-45
2022/05/03 03:18:56;;;;;;;;;;;;;;;;;;1036841;28;4541;-45
2022/05/03 03:19:32;;;;;;;;;;;;;;;;;;1036155;28;3736;-46
2022/05/03 03:20:04;;;;;;;;;;;;;;;;;;1035240;28;3464;-47
2022/05/03 03:20:36;;;;;;;;;;;;;;;;;;1033517;28;3712;-47
2022/05/03 03:21:13;;;;;;;;;;;;;;;;;;1036522;28;3653;-44
2022/05/03 03:21:47;;;;;;;;;;;;;;;;;;1037571;28;3845;-44
2022/05/03 03:22:19;;;;;;;;;;;;;;;;;;1036760;28;4450;-45
2022/05/03 03:22:49;;;;;;;;;;;;;;;;;;1038524;28;3985;-46
2022/05/03 03:23:24;;;;;;;;;;;;;;;;;;1039028;28;3748;-44
2022/05/03 03:23:56;;;;;;;;;;;;;;;;;;1039191;28;3816;-46
2022/05/03 03:24:28;;;;;;;;;;;;;;;;;;1038489;28;4793;-46
2022/05/03 03:24:59;;;;;;;;;;;;;;;;;;1040585;28;3680;-48
2022/05/03 03:25:29;;;;;;;;;;;;;;;;;;1038959;28;3674;-46
2022/05/03 03:26:00;;;;;;;;;;;;;;;;;;1040054;28;3806;-44
2022/05/03 03:26:30;;;;;;;;;;;;;;;;;;1039736;28;3562;-44
2022/05/03 03:27:02;;;;;;;;;;;;;;;;;;1039874;28;3960;-45
2022/05/03 03:27:33;;;;;;;;;;;;;;;;;;1039821;28;3630;-45
2022/05/03 03:28:04;;;;;;;;;;;;;;;;;;1039851;28;3535;-43
2022/05/03 03:28:48;;;;;;;;;;;;;;;;;;1038244;28;3744;-43
2022/05/03 03:29:27;;;;;;;;;;;;;;;;;;1035793;28;3554;-46
2022/05/03 03:29:58;;;;;;;;;;;;;;;;;;1035197;28;3685;-48
2022/05/03 03:30:28;;;;;;;;;;;;;;;;;;1034935;28;3522;-43
2022/05/03 03:31:02;;;;;;;;;;;;;;;;;;1034622;28;3653;-46
2022/05/03 03:31:33;;;;;;;;;;;;;;;;;;1035036;28;3641;-44
2022/05/03 03:32:05;;;;;;;;;;;;;;;;;;1035326;28;3556;-46
2022/05/03 03:32:37;;;;;;;;;;;;;;;;;;1035409;28;3503;-46
2022/05/03 03:33:08;;;;;;;;;;;;;;;;;;1036215;28;3537;-45
2022/05/03 03:33:40;;;;;;;;;;;;;;;;;;1035901;28;3743;-48
2022/05/03 03:34:11;;;;;;;;;;;;;;;;;;1034396;28;5006;-46
2022/05/03 03:34:42;;;;;;;;;;;;;;;;;;1036083;28;3564;-45
2022/05/03 03:35:14;;;;;;;;;;;;;;;;;;1032582;28;3729;-44
2022/05/03 03:35:45;;;;;;;;;;;;;;;;;;1031298;28;3345;-45
2022/05/03 03:36:15;;;;;;;;;;;;;;;;;;1032098;28;3732;-46
2022/05/03 03:36:49;;;;;;;;;;;;;;;;;;1032197;28;4445;-46
2022/05/03 03:37:22;;;;;;;;;;;;;;;;;;1036794;28;3460;-46
2022/05/03 03:37:53;;;;;;;;;;;;;;;;;;1035229;28;3636;-45
2022/05/03 03:38:27;;;;;;;;;;;;;;;;;;1035929;28;3530;-44
2022/05/03 03:38:57;;;;;;;;;;;;;;;;;;1035442;28;3586;-44
2022/05/03 03:39:28;;;;;;;;;;;;;;;;;;1035407;28;3595;-44
2022/05/03 03:39:59;;;;;;;;;;;;;;;;;;1037373;28;3604;-45
2022/05/03 03:40:29;;;;;;;;;;;;;;;;;;1036588;28;3854;-47
2022/05/03 03:40:59;;;;;;;;;;;;;;;;;;1033947;28;3454;-45
2022/05/03 03:41:30;;;;;;;;;;;;;;;;;;1036470;28;3651;-44
2022/05/03 03:42:04;;;;;;;;;;;;;;;;;;1031050;28;3851;-44
2022/05/03 03:42:34;;;;;;;;;;;;;;;;;;1032521;28;4158;-44
2022/05/03 03:43:05;;;;;;;;;;;;;;;;;;1032562;28;3599;-45
2022/05/03 03:43:35;;;;;;;;;;;;;;;;;;1034360;28;3660;-44
2022/05/03 03:44:05;;;;;;;;;;;;;;;;;;1031595;28;5762;-49
2022/05/03 03:44:36;;;;;;;;;;;;;;;;;;1031637;28;3643;-46
2022/05/03 03:45:07;;;;;;;;;;;;;;;;;;1032313;28;3592;-44
2022/05/03 03:45:37;;;;;;;;;;;;;;;;;;1031486;28;3692;-44
2022/05/03 03:46:08;;;;;;;;;;;;;;;;;;1036033;28;3872;-44
2022/05/03 03:46:38;;;;;;;;;;;;;;;;;;1034350;28;4085;-45
2022/05/03 03:47:09;;;;;;;;;;;;;;;;;;1035837;28;3500;-45
2022/05/03 03:47:40;;;;;;;;;;;;;;;;;;1032053;28;4795;-45
2022/05/03 03:48:10;;;;;;;;;;;;;;;;;;1031328;28;4958;-46
2022/05/03 03:48:41;;;;;;;;;;;;;;;;;;1031766;28;3479;-44
2022/05/03 03:49:11;;;;;;;;;;;;;;;;;;1031764;28;3506;-45
2022/05/03 03:49:42;;;;;;;;;;;;;;;;;;1031546;28;3892;-47
2022/05/03 03:50:13;;;;;;;;;;;;;;;;;;1030786;28;4519;-47
2022/05/03 03:50:43;;;;;;;;;;;;;;;;;;1031479;28;3702;-46
2022/05/03 03:51:14;;;;;;;;;;;;;;;;;;1030335;28;3650;-45
2022/05/03 03:51:45;;;;;;;;;;;;;;;;;;1034892;28;3792;-45
2022/05/03 03:52:15;;;;;;;;;;;;;;;;;;1032848;28;3767;-45
2022/05/03 03:52:47;;;;;;;;;;;;;;;;;;1033435;28;3776;-44
2022/05/03 03:53:18;;;;;;;;;;;;;;;;;;1031501;28;3856;-46
2022/05/03 03:53:49;;;;;;;;;;;;;;;;;;1033119;28;3424;-45
2022/05/03 03:54:20;;;;;;;;;;;;;;;;;;1035936;28;3914;-44
2022/05/03 03:54:50;;;;;;;;;;;;;;;;;;1034404;28;3794;-44
2022/05/03 03:55:21;;;;;;;;;;;;;;;;;;1034541;28;4083;-46
2022/05/03 03:55:52;;;;;;;;;;;;;;;;;;1035889;28;3497;-46
2022/05/03 03:56:22;;;;;;;;;;;;;;;;;;1035001;28;3470;-45
2022/05/03 03:56:53;;;;;;;;;;;;;;;;;;1036691;28;3582;-46
2022/05/03 03:57:24;;;;;;;;;;;;;;;;;;1035445;28;3592;-45
2022/05/03 03:57:54;;;;;;;;;;;;;;;;;;1035658;28;3792;-44
2022/05/03 03:58:25;;;;;;;;;;;;;;;;;;1035553;28;4306;-45
2022/05/03 03:58:55;;;;;;;;;;;;;;;;;;1036118;28;3541;-45
2022/05/03 03:59:30;;;;;;;;;;;;;;;;;;1034656;28;3476;-45
2022/05/03 04:00:02;;;;;;;;;;;;;;;;;;1035865;28;3796;-46
2022/05/03 04:00:32;;;;;;;;;;;;;;;;;;1029690;28;3789;-45
2022/05/03 04:01:03;;;;;;;;;;;;;;;;;;1029844;28;3676;-44
2022/05/03 04:01:33;;;;;;;;;;;;;;;;;;1030349;28;3382;-45
2022/05/03 04:02:03;;;;;;;;;;;;;;;;;;1030341;28;3785;-45
2022/05/03 04:02:34;;;;;;;;;;;;;;;;;;1036446;28;3542;-45
2022/05/03 04:03:06;;;;;;;;;;;;;;;;;;1036462;28;3741;-46
2022/05/03 04:03:37;;;;;;;;;;;;;;;;;;1036236;28;3573;-44
2022/05/03 04:04:11;;;;;;;;;;;;;;;;;;1031359;28;4169;-44
2022/05/03 04:04:42;;;;;;;;;;;;;;;;;;1028819;28;3618;-46
2022/05/03 04:05:17;;;;;;;;;;;;;;;;;;1028076;28;3819;-44
2022/05/03 04:05:47;;;;;;;;;;;;;;;;;;1029532;28;3762;-45
2022/05/03 04:06:18;;;;;;;;;;;;;;;;;;1031917;28;3855;-45
2022/05/03 04:06:48;;;;;;;;;;;;;;;;;;1031323;28;3520;-45
2022/05/03 04:07:19;;;;;;;;;;;;;;;;;;1027169;28;3626;-45
2022/05/03 04:07:50;;;;;;;;;;;;;;;;;;1023085;28;6557;-47
2022/05/03 04:08:20;;;;;;;;;;;;;;;;;;1024860;28;6310;-47
2022/05/03 04:08:52;;;;;;;;;;;;;;;;;;1031347;28;3629;-46
2022/05/03 04:09:23;;;;;;;;;;;;;;;;;;1027386;28;3714;-46
2022/05/03 04:09:53;;;;;;;;;;;;;;;;;;1030905;28;3693;-45
2022/05/03 04:10:23;;;;;;;;;;;;;;;;;;1030343;28;4329;-44
2022/05/03 04:10:53;;;;;;;;;;;;;;;;;;1029460;28;3850;-44
2022/05/03 04:11:24;;;;;;;;;;;;;;;;;;1036207;28;3830;-45
2022/05/03 04:11:54;;;;;;;;;;;;;;;;;;1034808;28;3698;-45
2022/05/03 04:12:24;;;;;;;;;;;;;;;;;;1029789;28;4027;-46
2022/05/03 04:12:55;;;;;;;;;;;;;;;;;;1029472;28;3688;-45
2022/05/03 04:13:25;;;;;;;;;;;;;;;;;;1031897;28;3849;-45
2022/05/03 04:13:56;;;;;;;;;;;;;;;;;;1030931;28;3695;-44
2022/05/03 04:14:27;;;;;;;;;;;;;;;;;;1035918;28;3590;-45
2022/05/03 04:14:57;;;;;;;;;;;;;;;;;;1035335;28;3924;-45